Bookmark and Share
Track history (hours):
 

Velserdiep

Last reported at 2014-Apr-15 03:31 UTC. Time now 2014-Apr-17 03:59 UTC.
Position N 37°55' W 009°36'.

Length 120 m; draft 5 m.

Type: Cargo ship. MMSI: 244484000.

NotesDate/timePositionNaut miles runAvg speedWind from/ knotsBaromVisibWave heightAir tempDewpointWater temp
2014-Apr-15 03:31N 37°55' W 009°36'1313.3
2014-Apr-15 02:34N 37°42' W 009°33'22411.8
2014-Apr-14 07:33N 36°01' W 005°23'1313.1
2014-Apr-14 06:31N 36°03' W 005°07'  
2014-Apr-07 23:15N 35°57' W 005°03'913.0
2014-Apr-07 22:33N 35°56' W 005°14'4 3.7
2014-Apr-07 21:33N 35°54' W 005°18'0 0.0
2014-Apr-07 20:33N 35°54' W 005°18'0 0.0
2014-Apr-07 19:33N 35°54' W 005°18'2 0.9
2014-Apr-07 17:30N 35°55' W 005°20'0 0.2
2014-Apr-07 16:33N 35°55' W 005°20'0 0.0
2014-Apr-07 15:33N 35°55' W 005°20'2 2.1
2014-Apr-07 14:34N 35°56' W 005°22'1211.5
2014-Apr-07 13:31N 35°55' W 005°36'1311.1
2014-Apr-07 12:20N 35°55' W 005°53'13611.6
2014-Apr-07 00:33N 36°25' W 008°37'1211.5
2014-Apr-06 23:30N 36°29' W 008°52'1611.8
2014-Apr-06 22:11N 36°33' W 009°10'711.6
2014-Apr-06 21:33N 36°36' W 009°19'1212.0
2014-Apr-06 20:33N 36°45' W 009°29'1311.6
2014-Apr-06 19:28N 36°56' W 009°36'1412.1
2014-Apr-06 18:17N 37°10' W 009°40'912.4
2014-Apr-06 17:33N 37°19' W 009°42'1312.2
2014-Apr-06 16:29N 37°31' W 009°45'1111.9
2014-Apr-06 15:33N 37°42' W 009°49'1311.8
2014-Apr-06 14:25N 37°55' W 009°53'1111.7
2014-Apr-06 13:32N 38°05' W 009°55'1212.1
2014-Apr-06 12:33N 38°17' W 009°59'1811.9
2014-Apr-06 11:03N 38°34' W 010°04'1811.5
2014-Apr-06 09:31N 38°52' W 010°06'  

Dump ship's entire track history

sailing weather and tide predictions

Velserdiep — PBLP — position and weather